Time;durP1;ratioP1;P1;durP2;ratioP2;P2;SDS_P1;SDS_P2;PMS_P1;PMS_P2;Temp;Humidity;BMP_temperature;BMP_pressure;BME280_temperature;BME280_humidity;BME280_pressure;Samples;Min_cycle;Max_cycle;Signal;HPM_P1;HPM_P2
2024/04/11 00:00:01;;;;;;;2.37;2.00;;;;;;;8.38;61.85;94091.97;570722;26;932;-74
2024/04/11 00:00:16;;;;;;;2.28;1.73;;;;;;;8.39;61.55;94093.47;570738;26;851;-74
2024/04/11 00:00:32;;;;;;;2.67;1.83;;;;;;;8.38;61.34;94089.22;570600;26;927;-73
2024/04/11 00:00:47;;;;;;;2.80;2.03;;;;;;;8.40;61.63;94094.97;570844;26;909;-74
2024/04/11 00:01:05;;;;;;;3.70;2.15;;;;;;;8.42;61.33;94095.19;570731;26;824;-74
2024/04/11 00:01:20;;;;;;;5.50;2.00;;;;;;;8.44;61.20;94089.91;570710;26;935;-73
2024/04/11 00:01:37;;;;;;;5.13;1.93;;;;;;;8.46;61.51;94092.13;570710;26;936;-73
2024/04/11 00:01:53;;;;;;;3.38;2.10;;;;;;;8.47;61.16;94090.88;570622;26;829;-73
2024/04/11 00:02:08;;;;;;;4.20;2.10;;;;;;;8.47;61.20;94101.88;570773;26;963;-74
2024/04/11 00:02:24;;;;;;;4.82;2.25;;;;;;;8.46;61.20;94092.88;570744;26;790;-74
2024/04/11 00:02:39;;;;;;;2.90;2.13;;;;;;;8.33;61.30;94079.78;570811;26;861;-73
2024/04/11 00:02:55;;;;;;;1.95;1.77;;;;;;;8.41;61.47;94096.44;570817;26;841;-73
2024/04/11 00:03:11;;;;;;;1.70;1.60;;;;;;;8.38;61.35;94094.75;570588;26;893;-73
2024/04/11 00:03:26;;;;;;;2.27;1.80;;;;;;;8.35;61.51;94093.75;570778;26;774;-75
2024/04/11 00:03:42;;;;;;;2.42;1.80;;;;;;;8.33;61.42;94092.78;570781;26;830;-74
2024/04/11 00:03:58;;;;;;;3.60;1.77;;;;;;;8.32;61.71;94094.78;570698;26;888;-74
2024/04/11 00:04:13;;;;;;;3.90;1.90;;;;;;;8.32;61.59;94091.28;570755;26;838;-74
2024/04/11 00:04:29;;;;;;;2.22;1.90;;;;;;;8.30;61.45;94091.81;570680;26;834;-74
2024/04/11 00:04:45;;;;;;;2.07;1.80;;;;;;;8.33;61.53;94093.53;570648;26;853;-74
2024/04/11 00:05:00;;;;;;;2.50;1.70;;;;;;;8.32;61.48;94092.03;570629;26;833;-74
2024/04/11 00:05:15;;;;;;;2.03;1.53;;;;;;;8.32;61.74;94094.78;570764;26;857;-74
2024/04/11 00:05:31;;;;;;;1.50;1.40;;;;;;;8.32;61.81;94091.28;570691;26;822;-73
2024/04/11 00:05:46;;;;;;;2.40;1.30;;;;;;;8.32;61.43;94099.53;570820;26;885;-74
2024/04/11 00:06:02;;;;;;;2.47;1.30;;;;;;;8.34;61.53;94092.25;570490;26;852;-73
2024/04/11 00:06:18;;;;;;;1.70;1.60;;;;;;;8.34;61.95;94091.50;570659;26;922;-74
2024/04/11 00:06:33;;;;;;;1.87;1.70;;;;;;;8.36;61.90;94091.72;570656;26;935;-74
2024/04/11 00:06:49;;;;;;;2.38;1.80;;;;;;;8.37;61.65;94090.47;570750;26;900;-73
2024/04/11 00:07:04;;;;;;;2.37;1.87;;;;;;;8.37;61.82;94096.00;570650;26;841;-73
2024/04/11 00:07:19;;;;;;;1.97;1.63;;;;;;;8.37;61.76;94085.72;570731;26;916;-74
2024/04/11 00:07:35;;;;;;;2.00;1.77;;;;;;;8.39;62.13;94093.47;570750;26;798;-74
2024/04/11 00:07:50;;;;;;;5.47;1.90;;;;;;;8.38;62.02;94089.97;570729;26;805;-73
2024/04/11 00:08:06;;;;;;;5.60;1.80;;;;;;;8.38;61.92;94080.97;570738;26;905;-73
2024/04/11 00:08:21;;;;;;;1.53;1.40;;;;;;;8.39;62.29;94093.47;570748;26;861;-74
2024/04/11 00:08:37;;;;;;;2.35;1.75;;;;;;;8.39;62.17;94091.47;570713;26;940;-74
2024/04/11 00:08:52;;;;;;;3.60;1.93;;;;;;;8.39;62.09;94093.47;570750;26;777;-73
2024/04/11 00:09:08;;;;;;;4.78;1.95;;;;;;;8.39;62.29;94087.97;570565;26;829;-74
2024/04/11 00:09:23;;;;;;;3.97;2.10;;;;;;;8.38;62.33;94089.22;570719;26;810;-73
2024/04/11 00:09:39;;;;;;;2.13;1.88;;;;;;;8.38;62.45;94091.97;570743;26;896;-73
2024/04/11 00:09:54;;;;;;;3.70;1.93;;;;;;;8.38;62.30;94095.47;570715;26;803;-73
2024/04/11 00:10:10;;;;;;;3.83;1.88;;;;;;;8.40;62.27;94092.22;570648;26;971;-73
2024/04/11 00:10:25;;;;;;;3.33;1.70;;;;;;;8.42;62.06;94092.44;570824;26;769;-74
2024/04/11 00:10:41;;;;;;;3.53;1.97;;;;;;;8.40;61.83;94090.19;570758;26;840;-74
2024/04/11 00:10:57;;;;;;;2.63;2.20;;;;;;;8.44;61.96;94089.91;570733;26;952;-73
2024/04/11 00:11:12;;;;;;;2.40;2.20;;;;;;;8.44;61.94;94089.91;570660;26;826;-73
2024/04/11 00:11:28;;;;;;;2.38;2.10;;;;;;;8.45;61.93;94091.38;570474;26;1853;-74
2024/04/11 00:11:43;;;;;;;2.40;2.20;;;;;;;8.45;61.92;94096.88;570597;26;909;-75
2024/04/11 00:11:59;;;;;;;3.15;2.15;;;;;;;8.47;61.79;94093.63;570814;26;813;-74
2024/04/11 00:12:14;;;;;;;3.33;2.03;;;;;;;8.47;61.80;94091.59;570760;26;912;-73
2024/04/11 00:12:30;;;;;;;2.72;2.10;;;;;;;8.49;61.54;94093.84;570678;26;963;-74
2024/04/11 00:12:45;;;;;;;2.33;2.13;;;;;;;8.49;61.74;94091.09;570762;26;857;-74
2024/04/11 00:13:01;;;;;;;2.73;2.20;;;;;;;8.50;61.93;94092.56;570537;26;824;-73
2024/04/11 00:13:18;;;;;;;3.25;2.22;;;;;;;8.51;61.69;94089.28;570734;26;980;-74
2024/04/11 00:13:33;;;;;;;2.08;1.90;;;;;;;8.51;61.63;94094.78;570687;26;834;-73
2024/04/11 00:13:49;;;;;;;2.00;1.85;;;;;;;8.51;61.75;94092.03;570836;26;948;-73
2024/04/11 00:14:05;;;;;;;2.27;2.10;;;;;;;8.51;62.03;94091.31;570674;26;826;-73
2024/04/11 00:14:20;;;;;;;2.30;2.10;;;;;;;8.51;61.75;94089.28;570608;26;826;-73
2024/04/11 00:14:35;;;;;;;2.37;2.00;;;;;;;8.51;61.55;94094.78;570675;26;912;-73
2024/04/11 00:14:51;;;;;;;2.15;1.80;;;;;;;8.48;61.64;94093.09;570726;26;809;-73
2024/04/11 00:15:07;;;;;;;2.50;1.60;;;;;;;8.44;61.86;94089.91;570727;26;909;-74
2024/04/11 00:15:22;;;;;;;2.47;1.67;;;;;;;8.42;61.63;94092.44;570741;26;819;-73
2024/04/11 00:15:37;;;;;;;2.00;1.80;;;;;;;8.38;61.38;94091.97;570651;26;833;-73
2024/04/11 00:15:55;;;;;;;2.10;1.70;;;;;;;8.33;61.70;94090.03;570767;26;948;-73
2024/04/11 00:16:11;;;;;;;2.28;1.50;;;;;;;8.19;61.83;94072.66;570556;26;970;-73
2024/04/11 00:16:27;;;;;;;2.17;1.65;;;;;;;8.31;61.66;94087.81;570673;26;889;-73
2024/04/11 00:16:42;;;;;;;5.53;2.10;;;;;;;8.30;61.75;94091.81;570561;26;825;-73
2024/04/11 00:16:58;;;;;;;5.13;1.97;;;;;;;8.30;61.91;94089.06;570610;26;872;-73
2024/04/11 00:17:13;;;;;;;1.67;1.58;;;;;;;8.30;61.76;94089.06;570700;26;821;-73
2024/04/11 00:17:29;;;;;;;1.67;1.53;;;;;;;8.31;61.76;94089.81;570723;26;969;-73
2024/04/11 00:17:44;;;;;;;3.10;1.63;;;;;;;8.33;61.98;94090.03;570591;26;893;-74
2024/04/11 00:18:00;;;;;;;3.60;1.80;;;;;;;8.34;61.68;94091.50;570840;26;801;-73
2024/04/11 00:18:15;;;;;;;2.40;1.75;;;;;;;8.34;61.74;94091.50;570775;26;830;-74
2024/04/11 00:18:30;;;;;;;1.83;1.63;;;;;;;8.34;61.87;94086.75;570582;26;821;-73
2024/04/11 00:18:46;;;;;;;1.80;1.70;;;;;;;8.31;61.71;94085.06;570730;26;838;-73
2024/04/11 00:19:01;;;;;;;1.73;1.63;;;;;;;8.32;61.91;94091.28;570614;26;806;-73
2024/04/11 00:19:17;;;;;;;1.63;1.52;;;;;;;8.30;61.81;94086.31;566617;26;1289;-74
2024/04/11 00:19:35;;;;;;;1.60;1.50;;;;;;;8.30;61.93;94091.81;566744;26;940;-73
2024/04/11 00:19:51;;;;;;;1.60;1.50;;;;;;;8.28;61.76;94086.09;566465;26;908;-73
2024/04/11 00:20:07;;;;;;;1.77;1.65;;;;;;;8.29;62.16;94089.59;566723;26;854;-73
2024/04/11 00:20:22;;;;;;;1.90;1.70;;;;;;;8.30;62.22;94093.81;566562;26;983;-73
2024/04/11 00:20:37;;;;;;;2.80;2.00;;;;;;;8.29;61.84;94087.56;566706;26;875;-73
2024/04/11 00:20:54;;;;;;;2.75;2.08;;;;;;;8.10;62.15;94056.50;566792;26;822;-74
2024/04/11 00:21:10;;;;;;;2.60;2.00;;;;;;;8.27;61.98;94084.59;568535;26;862;-73
2024/04/11 00:21:25;;;;;;;2.22;1.70;;;;;;;8.29;62.12;94092.34;570664;26;838;-73
2024/04/11 00:21:41;;;;;;;2.33;1.70;;;;;;;8.29;62.15;94095.09;566550;26;2278;-73
2024/04/11 00:21:56;;;;;;;2.47;1.80;;;;;;;8.28;61.85;94088.84;566557;26;858;-73
2024/04/11 00:22:12;;;;;;;2.03;1.73;;;;;;;8.27;62.01;94086.63;566757;26;798;-73
2024/04/11 00:22:27;;;;;;;2.20;1.70;;;;;;;8.23;62.29;94086.09;566629;26;886;-73
2024/04/11 00:22:43;;;;;;;2.27;1.80;;;;;;;8.21;62.05;94092.13;566596;26;790;-73
2024/04/11 00:22:58;;;;;;;2.22;2.00;;;;;;;8.18;62.34;94090.44;562850;26;1178;-73
2024/04/11 00:23:14;;;;;;;2.10;1.90;;;;;;;8.16;62.49;94090.22;562927;26;827;-73
2024/04/11 00:23:29;;;;;;;2.65;1.60;;;;;;;8.14;62.61;94092.00;563631;26;786;-73
2024/04/11 00:23:48;;;;;;;2.80;1.70;;;;;;;8.12;62.50;94092.47;566393;26;857;-73
2024/04/11 00:24:04;;;;;;;2.10;1.90;;;;;;;8.07;62.70;94087.81;565990;26;1358;-73
2024/04/11 00:24:21;;;;;;;2.00;1.83;;;;;;;8.02;62.40;94096.84;566816;26;870;-73
2024/04/11 00:24:37;;;;;;;1.80;1.70;;;;;;;7.96;62.77;94092.69;566615;26;877;-73
2024/04/11 00:24:53;;;;;;;1.67;1.50;;;;;;;7.90;62.89;94092.00;566809;26;905;-73
2024/04/11 00:25:09;;;;;;;1.85;1.60;;;;;;;7.84;63.49;94091.31;566799;26;988;-74
2024/04/11 00:25:25;;;;;;;2.22;1.88;;;;;;;7.77;63.30;94086.38;566795;26;829;-74
2024/04/11 00:25:42;;;;;;;2.47;1.90;;;;;;;7.72;63.49;94087.91;566802;26;897;-73
2024/04/11 00:25:59;;;;;;;1.77;1.67;;;;;;;7.71;63.68;94085.69;566850;26;1005;-73
2024/04/11 00:26:14;;;;;;;1.80;1.70;;;;;;;7.67;63.67;94090.75;566821;26;861;-73
2024/04/11 00:26:30;;;;;;;1.90;1.70;;;;;;;7.65;63.89;94086.47;566887;26;913;-74
2024/04/11 00:26:47;;;;;;;1.70;1.60;;;;;;;7.64;63.86;94082.22;566657;26;878;-74
2024/04/11 00:27:02;;;;;;;2.17;1.90;;;;;;;7.63;63.87;94091.75;566626;26;982;-73
2024/04/11 00:27:18;;;;;;;2.30;2.00;;;;;;;7.61;63.94;94088.03;566834;26;1077;-74
2024/04/11 00:27:33;;;;;;;2.10;1.90;;;;;;;7.58;64.17;94092.53;566785;26;878;-74
2024/04/11 00:27:49;;;;;;;2.00;1.80;;;;;;;7.34;64.34;94056.06;566797;26;920;-73
2024/04/11 00:28:04;;;;;;;2.15;1.80;;;;;;;7.56;64.38;94089.56;566762;26;810;-73
2024/04/11 00:28:20;;;;;;;2.37;1.90;;;;;;;7.55;64.55;94084.59;566910;26;893;-74
2024/04/11 00:28:35;;;;;;;1.92;1.80;;;;;;;7.54;64.62;94089.34;566858;26;807;-74
2024/04/11 00:28:51;;;;;;;1.90;1.70;;;;;;;7.53;64.54;94087.09;566725;26;905;-74
2024/04/11 00:29:10;;;;;;;1.90;1.70;;;;;;;7.55;64.62;94082.59;566755;26;958;-74
2024/04/11 00:29:25;;;;;;;1.80;1.70;;;;;;;7.57;64.55;94087.56;566783;26;922;-74
2024/04/11 00:29:40;;;;;;;1.90;1.80;;;;;;;7.60;64.17;94086.56;566822;26;826;-73
2024/04/11 00:29:56;;;;;;;1.67;1.57;;;;;;;7.37;64.27;94055.78;566847;26;936;-73
2024/04/11 00:30:11;;;;;;;2.13;1.55;;;;;;;7.63;64.00;94082.75;566870;26;917;-74
2024/04/11 00:30:27;;;;;;;2.43;1.80;;;;;;;7.65;64.32;94078.25;566879;26;803;-74
2024/04/11 00:30:43;;;;;;;2.15;1.95;;;;;;;7.67;63.94;94079.75;566815;26;935;-74
2024/04/11 00:30:58;;;;;;;2.20;2.00;;;;;;;7.70;63.82;94092.44;566697;26;916;-74
2024/04/11 00:31:14;;;;;;;2.10;1.90;;;;;;;7.71;63.69;94083.66;562902;26;949;-73
2024/04/11 00:31:30;;;;;;;2.28;1.70;;;;;;;7.75;64.02;94084.16;562890;26;1834;-73
2024/04/11 00:31:45;;;;;;;2.20;1.80;;;;;;;7.77;63.96;94086.38;562953;26;913;-74
2024/04/11 00:32:02;;;;;;;2.00;1.77;;;;;;;7.79;63.76;94090.09;562740;26;806;-73
2024/04/11 00:32:17;;;;;;;2.13;1.80;;;;;;;7.80;63.84;94083.34;562738;26;823;-73
2024/04/11 00:32:32;;;;;;;2.13;1.90;;;;;;;7.82;63.55;94086.31;562802;26;1720;-73
2024/04/11 00:32:49;;;;;;;2.20;2.00;;;;;;;7.84;63.76;94083.06;562880;26;964;-73
2024/04/11 00:33:04;;;;;;;2.22;2.03;;;;;;;7.85;63.77;94085.28;563696;26;831;-74
2024/04/11 00:33:20;;;;;;;2.17;1.97;;;;;;;7.86;63.41;94084.00;566902;26;924;-73
2024/04/11 00:33:37;;;;;;;2.08;1.88;;;;;;;7.88;63.67;94086.28;566854;26;850;-73
2024/04/11 00:33:55;;;;;;;2.13;1.92;;;;;;;7.87;63.50;94088.28;566877;26;881;-73
2024/04/11 00:34:15;;;;;;;2.30;2.10;;;;;;;7.90;63.62;94086.50;566874;26;874;-74
2024/04/11 00:34:33;;;;;;;2.42;2.20;;;;;;;7.90;63.46;94084.50;566912;26;869;-73
2024/04/11 00:34:48;;;;;;;3.25;2.35;;;;;;;7.83;63.48;94076.06;566916;26;926;-73
2024/04/11 00:35:04;;;;;;;3.07;2.47;;;;;;;7.91;63.47;94085.97;566627;26;937;-73
2024/04/11 00:35:20;;;;;;;2.42;2.20;;;;;;;7.92;63.38;94089.47;566798;26;866;-73
2024/04/11 00:35:36;;;;;;;5.00;2.17;;;;;;;7.92;63.56;94086.72;566899;26;829;-74
2024/04/11 00:35:52;;;;;;;5.33;2.17;;;;;;;7.93;63.50;94090.94;566875;26;831;-73
2024/04/11 00:36:11;;;;;;;3.25;1.80;;;;;;;7.92;63.16;94089.47;566830;26;866;-75
2024/04/11 00:36:27;;;;;;;2.17;1.63;;;;;;;7.87;63.16;94090.25;566667;26;1677;-74
2024/04/11 00:36:44;;;;;;;1.75;1.65;;;;;;;7.86;62.88;94086.03;566698;26;1630;-73
2024/04/11 00:37:01;;;;;;;1.75;1.60;;;;;;;7.83;62.72;94081.56;566663;26;868;-73
2024/04/11 00:37:17;;;;;;;1.95;1.70;;;;;;;7.82;62.64;94091.09;566839;26;1636;-73
2024/04/11 00:37:32;;;;;;;1.70;1.60;;;;;;;7.81;62.57;94087.59;566828;26;977;-73
2024/04/11 00:37:48;;;;;;;1.60;1.50;;;;;;;7.80;62.40;94091.59;566807;26;778;-74
2024/04/11 00:38:09;;;;;;;2.28;1.60;;;;;;;7.82;62.17;94091.09;566647;26;892;-73
2024/04/11 00:38:27;;;;;;;2.60;1.70;;;;;;;7.83;62.37;94082.31;566700;26;955;-73
2024/04/11 00:38:42;;;;;;;1.90;1.60;;;;;;;7.83;62.11;94082.31;566842;26;878;-73
2024/04/11 00:38:58;;;;;;;2.33;1.77;;;;;;;7.84;62.22;94088.56;566743;26;897;-73
2024/04/11 00:39:18;;;;;;;1.98;1.70;;;;;;;7.84;62.27;94094.06;566647;26;790;-73
2024/04/11 00:39:33;;;;;;;1.77;1.60;;;;;;;7.84;62.61;94088.56;562980;26;913;-73
2024/04/11 00:39:49;;;;;;;2.53;1.70;;;;;;;7.84;62.32;94089.28;562907;26;977;-74
2024/04/11 00:40:05;;;;;;;2.50;1.70;;;;;;;7.84;62.38;94086.53;562841;26;792;-73
2024/04/11 00:40:21;;;;;;;1.67;1.58;;;;;;;7.83;62.51;94087.06;562836;26;881;-73
2024/04/11 00:40:36;;;;;;;1.77;1.67;;;;;;;7.84;62.24;94083.06;562715;26;935;-73
2024/04/11 00:40:56;;;;;;;1.90;1.80;;;;;;;7.84;62.42;94081.03;562905;26;845;-74
2024/04/11 00:41:11;;;;;;;1.80;1.70;;;;;;;7.86;62.43;94081.25;562915;26;1111;-73
2024/04/11 00:41:27;;;;;;;1.97;1.80;;;;;;;7.84;62.19;94080.31;566146;26;866;-73
2024/04/11 00:41:43;;;;;;;2.05;1.85;;;;;;;7.82;62.50;94088.34;566812;26;857;-73
2024/04/11 00:41:58;;;;;;;2.15;1.95;;;;;;;7.75;62.46;94086.16;566680;26;834;-73
2024/04/11 00:42:14;;;;;;;2.57;2.00;;;;;;;7.73;62.69;94083.19;566815;26;908;-73
2024/04/11 00:42:29;;;;;;;2.35;1.90;;;;;;;7.73;62.59;94080.44;566893;26;857;-73
2024/04/11 00:42:45;;;;;;;2.03;1.83;;;;;;;7.74;62.76;94088.16;566818;26;894;-73
2024/04/11 00:43:00;;;;;;;2.20;1.90;;;;;;;7.76;62.77;94084.88;566805;26;801;-73
2024/04/11 00:43:16;;;;;;;1.83;1.63;;;;;;;7.78;62.98;94085.09;566837;26;920;-73
2024/04/11 00:43:31;;;;;;;2.57;1.53;;;;;;;7.79;62.83;94081.09;566679;26;922;-73
2024/04/11 00:43:47;;;;;;;2.35;1.60;;;;;;;7.80;62.35;94083.34;566927;26;868;-73
2024/04/11 00:44:02;;;;;;;1.63;1.52;;;;;;;7.81;62.75;94087.59;566881;26;854;-73
2024/04/11 00:44:18;;;;;;;1.43;1.33;;;;;;;7.79;62.35;94092.09;566864;26;850;-73
2024/04/11 00:44:34;;;;;;;4.45;1.40;;;;;;;7.71;61.88;94082.94;566883;26;779;-73
2024/04/11 00:44:49;;;;;;;4.38;1.42;;;;;;;7.67;61.87;94083.22;568148;26;1255;-73
2024/04/11 00:45:07;;;;;;;1.40;1.30;;;;;;;7.63;61.88;94083.50;570512;26;871;-73
2024/04/11 00:45:22;;;;;;;1.35;1.35;;;;;;;7.61;61.88;94077.03;570452;26;802;-73
2024/04/11 00:45:47;;;;;;;1.40;1.30;;;;;;;7.60;62.11;94090.03;570535;26;861;-73
2024/04/11 00:46:02;;;;;;;1.40;1.30;;;;;;;7.61;62.07;94083.28;570345;26;1020;-73
2024/04/11 00:46:18;;;;;;;1.40;1.30;;;;;;;7.62;62.07;94081.28;566588;26;953;-73
2024/04/11 00:46:34;;;;;;;1.42;1.33;;;;;;;7.59;61.97;94091.28;566585;26;829;-73
2024/04/11 00:46:54;;;;;;;1.33;1.23;;;;;;;7.56;62.15;94088.81;566612;26;973;-73
2024/04/11 00:47:09;;;;;;;1.50;1.30;;;;;;;7.50;62.08;94086.13;566496;26;952;-74
2024/04/11 00:47:25;;;;;;;1.80;1.50;;;;;;;7.46;62.17;94091.16;566646;26;790;-73
2024/04/11 00:47:40;;;;;;;2.97;1.60;;;;;;;7.39;62.55;94080.72;566501;26;881;-74
2024/04/11 00:47:56;;;;;;;3.53;1.50;;;;;;;7.31;62.65;94084.53;566765;26;1075;-74
2024/04/11 00:48:11;;;;;;;2.58;1.50;;;;;;;7.29;63.06;94087.06;568642;26;1251;-73
2024/04/11 00:48:27;;;;;;;1.83;1.60;;;;;;;7.25;63.20;94090.09;570585;26;810;-73
2024/04/11 00:48:42;;;;;;;2.00;1.70;;;;;;;7.24;63.32;94088.59;566559;26;833;-73
2024/04/11 00:48:58;;;;;;;1.90;1.70;;;;;;;7.24;63.38;94088.59;566512;26;826;-73
2024/04/11 00:49:15;;;;;;;2.47;1.60;;;;;;;6.97;63.16;94042.16;566615;26;810;-74
2024/04/11 00:49:32;;;;;;;2.25;1.40;;;;;;;7.29;63.17;94078.81;566628;26;923;-73
2024/04/11 00:49:47;;;;;;;1.67;1.55;;;;;;;7.31;63.31;94084.53;566577;26;920;-73
2024/04/11 00:50:03;;;;;;;2.15;1.83;;;;;;;7.33;63.08;94085.53;566576;26;909;-73
2024/04/11 00:50:19;;;;;;;3.35;2.30;;;;;;;7.36;63.28;94081.03;566652;26;862;-73
2024/04/11 00:50:34;;;;;;;3.88;2.80;;;;;;;7.39;63.31;94086.22;564152;26;942;-75
2024/04/11 00:50:51;;;;;;;3.60;3.20;;;;;;;7.41;63.25;94089.19;566708;26;817;-73
2024/04/11 00:51:09;;;;;;;2.72;2.53;;;;;;;7.45;62.80;94086.91;566352;26;2058;-73
2024/04/11 00:51:25;;;;;;;2.10;1.90;;;;;;;7.48;62.86;94085.91;562758;26;1861;-73
2024/04/11 00:51:43;;;;;;;1.97;1.87;;;;;;;7.50;62.88;94091.63;562765;26;827;-73
2024/04/11 00:51:59;;;;;;;1.80;1.65;;;;;;;7.53;62.52;94079.63;562882;26;885;-73
2024/04/11 00:52:15;;;;;;;2.20;1.90;;;;;;;7.54;62.54;94078.34;562808;26;842;-74
2024/04/11 00:52:31;;;;;;;2.80;2.00;;;;;;;7.53;62.82;94079.63;565352;26;865;-73
2024/04/11 00:52:47;;;;;;;2.53;1.80;;;;;;;7.54;62.84;94083.09;566593;26;819;-73
2024/04/11 00:53:03;;;;;;;2.05;1.75;;;;;;;7.56;62.68;94086.81;566421;26;893;-74
2024/04/11 00:53:20;;;;;;;2.45;1.90;;;;;;;7.59;62.55;94079.56;569588;26;989;-73
2024/04/11 00:53:35;;;;;;;2.58;2.00;;;;;;;7.60;62.29;94078.31;566481;26;1045;-73
2024/04/11 00:53:53;;;;;;;2.15;1.90;;;;;;;7.61;62.18;94083.28;566662;26;849;-73
2024/04/11 00:54:09;;;;;;;1.98;1.77;;;;;;;7.61;62.18;94080.53;566649;26;854;-73
2024/04/11 00:54:25;;;;;;;1.90;1.70;;;;;;;7.57;62.45;94080.06;566527;26;890;-73
2024/04/11 00:54:41;;;;;;;2.28;2.08;;;;;;;7.50;62.30;94082.63;562886;26;811;-73
2024/04/11 00:54:56;;;;;;;2.63;2.33;;;;;;;7.46;62.44;94079.41;562926;26;1007;-73
2024/04/11 00:55:12;;;;;;;2.37;2.17;;;;;;;7.48;62.87;94074.16;562827;26;937;-73
2024/04/11 00:55:28;;;;;;;2.45;2.20;;;;;;;7.47;62.78;94078.91;564308;26;940;-73
2024/04/11 00:55:43;;;;;;;2.53;2.33;;;;;;;7.49;62.95;94076.38;566516;26;957;-73
2024/04/11 00:55:59;;;;;;;2.38;2.17;;;;;;;7.50;62.78;94080.63;562817;26;833;-73
2024/04/11 00:56:14;;;;;;;3.73;2.47;;;;;;;7.45;62.73;94075.19;562838;26;786;-73
2024/04/11 00:56:31;;;;;;;4.05;2.70;;;;;;;7.52;63.02;94088.34;563633;26;885;-73
2024/04/11 00:56:46;;;;;;;3.55;2.42;;;;;;;7.52;62.84;94080.09;566600;26;874;-74
2024/04/11 00:57:05;;;;;;;3.80;2.50;;;;;;;7.52;62.73;94078.13;566585;26;865;-73
2024/04/11 00:57:24;;;;;;;2.30;2.10;;;;;;;7.54;62.80;94088.59;566451;26;950;-74
2024/04/11 00:57:39;;;;;;;2.30;2.10;;;;;;;7.57;62.59;94090.31;566624;26;914;-74
2024/04/11 00:57:55;;;;;;;2.50;2.30;;;;;;;7.55;62.61;94085.34;569189;26;956;-73
2024/04/11 00:58:11;;;;;;;2.58;2.38;;;;;;;7.57;62.67;94087.56;570691;26;830;-73
2024/04/11 00:58:28;;;;;;;2.55;2.35;;;;;;;7.57;62.73;94082.81;570611;26;849;-74
2024/04/11 00:58:44;;;;;;;2.45;2.25;;;;;;;7.57;62.72;94079.31;566662;26;877;-73
2024/04/11 00:59:00;;;;;;;2.47;2.28;;;;;;;7.58;62.64;94081.56;566689;26;862;-74
2024/04/11 00:59:16;;;;;;;2.97;2.50;;;;;;;7.58;62.58;94084.28;566659;26;810;-74
2024/04/11 00:59:31;;;;;;;2.87;2.27;;;;;;;7.35;62.69;94049.31;566706;26;778;-73
2024/04/11 00:59:47;;;;;;;2.58;2.20;;;;;;;7.37;62.70;94055.78;562921;26;806;-74
2024/04/11 01:00:06;;;;;;;3.10;2.40;;;;;;;7.53;62.79;94082.38;562615;26;940;-73
2024/04/11 01:00:27;;;;;;;2.80;2.22;;;;;;;7.49;63.19;94081.88;562780;26;1008;-73
2024/04/11 01:00:42;;;;;;;2.47;2.10;;;;;;;7.44;62.93;94085.44;566373;26;874;-73
2024/04/11 01:00:58;;;;;;;3.50;2.00;;;;;;;7.40;63.15;94079.47;566630;26;897;-73
2024/04/11 01:01:13;;;;;;;2.97;1.93;;;;;;;7.34;63.13;94078.03;566592;26;833;-73
2024/04/11 01:01:32;;;;;;;2.27;2.07;;;;;;;7.27;63.49;94084.84;566490;26;943;-73
2024/04/11 01:01:48;;;;;;;2.20;2.00;;;;;;;7.24;63.44;94079.59;570440;26;854;-73
2024/04/11 01:02:04;;;;;;;2.28;2.08;;;;;;;7.25;63.52;94083.84;570449;26;894;-74
2024/04/11 01:02:20;;;;;;;4.15;2.30;;;;;;;7.28;63.60;94080.06;570641;26;917;-74
2024/04/11 01:02:36;;;;;;;4.07;2.30;;;;;;;7.31;63.44;94081.81;570618;26;854;-74
2024/04/11 01:02:51;;;;;;;2.22;2.13;;;;;;;7.33;63.26;94074.53;570427;26;913;-73
2024/04/11 01:03:07;;;;;;;2.40;2.20;;;;;;;7.36;63.07;94084.50;570613;26;865;-74
2024/04/11 01:03:23;;;;;;;2.85;2.55;;;;;;;7.37;63.03;94082.50;570529;26;958;-74
2024/04/11 01:03:38;;;;;;;2.93;2.37;;;;;;;7.39;63.24;94083.47;570591;26;941;-74
2024/04/11 01:03:54;;;;;;;2.90;2.20;;;;;;;7.42;63.10;94081.72;570562;26;843;-73
2024/04/11 01:04:10;;;;;;;2.37;2.13;;;;;;;7.41;63.50;94078.22;570434;26;1112;-73
2024/04/11 01:04:26;;;;;;;2.92;2.20;;;;;;;7.40;63.03;94076.75;570562;26;927;-74
2024/04/11 01:04:41;;;;;;;2.50;2.10;;;;;;;7.41;63.48;94077.47;570707;26;800;-74
2024/04/11 01:05:00;;;;;;;2.40;2.20;;;;;;;7.41;63.23;94080.97;570584;26;953;-73
2024/04/11 01:05:15;;;;;;;2.40;2.20;;;;;;;7.42;63.04;94081.72;570584;26;1010;-73
2024/04/11 01:05:32;;;;;;;2.40;2.20;;;;;;;7.42;62.97;94079.72;570520;26;837;-73
2024/04/11 01:05:47;;;;;;;2.55;2.17;;;;;;;7.44;63.08;94084.69;570550;26;898;-74
2024/04/11 01:06:03;;;;;;;2.53;2.10;;;;;;;7.44;63.02;94077.19;570582;26;770;-73
2024/04/11 01:06:19;;;;;;;3.05;2.10;;;;;;;7.41;62.87;94078.22;570632;26;909;-74
2024/04/11 01:07:20;;;;;;;3.03;2.10;;;;;;;7.22;63.62;94085.63;570598;26;1398;-74
2024/04/11 01:07:35;;;;;;;2.13;1.90;;;;;;;7.16;63.27;94079.44;570664;26;766;-73
2024/04/11 01:07:57;;;;;;;2.53;2.10;;;;;;;7.09;63.44;94079.97;570537;26;885;-74
2024/04/11 01:08:13;;;;;;;2.47;2.20;;;;;;;7.04;63.88;94086.25;570512;26;992;-73
2024/04/11 01:08:28;;;;;;;1.97;1.87;;;;;;;7.02;63.76;94077.06;570484;26;931;-74
2024/04/11 01:08:46;;;;;;;2.08;1.83;;;;;;;7.01;63.82;94078.28;570629;26;842;-73
2024/04/11 01:09:01;;;;;;;2.85;2.08;;;;;;;7.03;63.94;94086.75;570434;26;888;-73
2024/04/11 01:09:19;;;;;;;2.88;1.85;;;;;;;7.05;63.75;94079.50;570551;26;917;-73
2024/04/11 01:09:38;;;;;;;2.03;1.70;;;;;;;7.07;63.65;94084.47;570552;26;913;-73
2024/04/11 01:09:54;;;;;;;2.33;1.85;;;;;;;7.09;63.66;94081.97;570427;26;920;-73
2024/04/11 01:10:16;;;;;;;2.20;2.00;;;;;;;7.10;63.62;94078.72;570637;26;909;-73
2024/04/11 01:10:32;;;;;;;2.42;2.22;;;;;;;7.15;63.77;94085.41;570511;26;963;-73
2024/04/11 01:10:47;;;;;;;2.13;1.90;;;;;;;7.17;63.50;94083.66;570578;26;937;-74
2024/04/11 01:11:03;;;;;;;2.65;2.05;;;;;;;7.16;63.60;94084.91;570446;26;830;-73
2024/04/11 01:11:18;;;;;;;3.07;2.17;;;;;;;7.11;63.96;94085.69;570675;26;837;-73
2024/04/11 01:11:36;;;;;;;3.38;2.22;;;;;;;7.08;64.01;94083.25;570508;26;1864;-73
2024/04/11 01:11:52;;;;;;;2.97;2.47;;;;;;;7.04;64.73;94086.25;570638;26;920;-73
2024/04/11 01:12:08;;;;;;;2.53;2.33;;;;;;;7.03;64.78;94082.03;570667;26;858;-73
2024/04/11 01:12:23;;;;;;;2.50;2.30;;;;;;;7.02;64.65;94077.06;570446;26;806;-73
2024/04/11 01:12:39;;;;;;;2.80;2.53;;;;;;;7.00;64.93;94085.78;570606;26;821;-73
2024/04/11 01:12:54;;;;;;;3.60;2.40;;;;;;;6.98;65.10;94079.31;570541;26;814;-73
2024/04/11 01:13:09;;;;;;;3.45;2.30;;;;;;;6.96;65.12;94079.81;570675;26;908;-73
2024/04/11 01:13:25;;;;;;;3.10;2.33;;;;;;;6.92;65.24;94086.84;570577;26;771;-73
2024/04/11 01:13:40;;;;;;;2.80;2.33;;;;;;;6.91;65.36;94075.09;570545;26;908;-73
2024/04/11 01:13:56;;;;;;;2.53;2.33;;;;;;;6.94;65.17;94078.84;570550;26;892;-73
2024/04/11 01:14:14;;;;;;;3.07;2.10;;;;;;;6.93;65.16;94082.84;570580;26;872;-74
2024/04/11 01:14:33;;;;;;;2.80;1.90;;;;;;;6.93;64.76;94082.84;570594;26;906;-73
2024/04/11 01:14:49;;;;;;;2.42;2.00;;;;;;;6.96;65.02;94073.59;570627;26;845;-74
2024/04/11 01:15:06;;;;;;;2.38;1.90;;;;;;;6.97;64.98;94086.06;570629;26;869;-73
2024/04/11 01:15:22;;;;;;;1.92;1.60;;;;;;;6.96;64.54;94079.81;570414;26;920;-74
2024/04/11 01:15:37;;;;;;;1.87;1.73;;;;;;;6.97;64.62;94081.31;570559;26;837;-73
2024/04/11 01:15:54;;;;;;;2.35;2.15;;;;;;;6.98;64.72;94085.53;570529;26;893;-73
2024/04/11 01:16:09;;;;;;;2.55;2.20;;;;;;;6.99;64.68;94084.31;570535;26;1053;-73
2024/04/11 01:16:28;;;;;;;2.58;2.10;;;;;;;6.98;64.67;94085.53;570530;26;901;-73
2024/04/11 01:16:44;;;;;;;2.50;2.10;;;;;;;6.96;64.58;94085.31;570375;26;896;-73
2024/04/11 01:16:59;;;;;;;2.97;2.00;;;;;;;6.97;64.55;94086.81;570597;26;818;-73
2024/04/11 01:17:16;;;;;;;3.80;1.88;;;;;;;6.97;64.60;94081.31;566395;26;2451;-73
2024/04/11 01:17:31;;;;;;;2.60;1.90;;;;;;;6.99;64.86;94081.56;566527;26;913;-73
2024/04/11 01:17:47;;;;;;;2.27;2.07;;;;;;;7.01;64.56;94086.53;566591;26;814;-73
2024/04/11 01:18:02;;;;;;;2.33;2.13;;;;;;;7.01;64.81;94081.78;566461;26;818;-73
2024/04/11 01:18:19;;;;;;;2.30;2.10;;;;;;;7.01;64.94;94081.78;566582;26;802;-74
2024/04/11 01:18:35;;;;;;;3.60;2.10;;;;;;;6.93;64.79;94077.38;566542;26;877;-73
2024/04/11 01:18:55;;;;;;;3.30;1.98;;;;;;;6.92;64.53;94082.09;566467;26;889;-75
2024/04/11 01:19:11;;;;;;;1.73;1.63;;;;;;;6.88;64.77;94081.63;569151;26;885;-73
2024/04/11 01:19:26;;;;;;;2.03;1.83;;;;;;;6.85;64.81;94082.63;570414;26;897;-73
2024/04/11 01:19:48;;;;;;;2.40;2.10;;;;;;;6.86;64.61;94078.66;570492;26;869;-73
2024/04/11 01:20:05;;;;;;;2.30;2.08;;;;;;;6.86;64.76;94082.13;570487;26;1078;-73
2024/04/11 01:20:21;;;;;;;2.42;2.05;;;;;;;6.87;64.84;94083.63;570674;26;846;-73